New Bremen, Ohio
Current Conditions -  °F | °C
As of 12:54 AM on Sunday 23 Nov 2014 (Local Time) from KAXV Reporting Station
Light Rain Light Rain  
Wind Chill: 43°   Ceiling: 7500
Heat Index: 48°   Visibility: 10mi
Dew Point: 39°   Wind: 12mph
Humidity: 71%   Direction: 190°S
Pressure: 30.01"   Gusts: NA
Location:  40.44°N, 84.38°W
Report Text: KAXV 230554Z AUTO 19010KT 10SM -RA SCT044 SCT050 BKN075 09/04 A3001 RMK AO2
Loading
Personal Weather Stations






























Interactive Weather Map New forecast layout! Learn more

10-Day Weather Forecast

Advertisements
Track Severe Weather on mobile